Time;durP1;ratioP1;P1;durP2;ratioP2;P2;SDS_P1;SDS_P2;PMS_P1;PMS_P2;Temp;Humidity;BMP_temperature;BMP_pressure;BME280_temperature;BME280_humidity;BME280_pressure;Samples;Min_cycle;Max_cycle;Signal;HPM_P1;HPM_P2
2022/10/21 00:00:36;;;;;;;11.82;9.93;;;;;;;;;;6307101;22;19999;-81
2022/10/21 00:03:03;;;;;;;13.02;10.27;;;;;;;;;;6307291;22;19995;-80
2022/10/21 00:05:29;;;;;;;12.95;9.38;;;;;;;;;;6306810;22;20014;-81
2022/10/21 00:07:55;;;;;;;10.23;9.18;;;;;;;;;;6307143;22;20007;-80
2022/10/21 00:10:21;;;;;;;10.70;8.85;;;;;;;;;;6307272;22;20330;-83
2022/10/21 00:12:47;;;;;;;12.50;8.73;;;;;;;;;;6307018;22;20022;-84
2022/10/21 00:15:13;;;;;;;13.65;9.77;;;;;;;;;;6306788;22;20098;-78
2022/10/21 00:17:40;;;;;;;15.93;10.75;;;;;;;;;;6307195;22;20003;-80
2022/10/21 00:20:08;;;;;;;11.30;9.48;;;;;;;;;;6306892;22;19995;-81
2022/10/21 00:22:35;;;;;;;13.57;9.25;;;;;;;;;;6307067;22;20453;-81
2022/10/21 00:25:01;;;;;;;10.18;8.73;;;;;;;;;;6306920;22;20010;-80
2022/10/21 00:27:27;;;;;;;12.57;9.82;;;;;;;;;;6307061;22;20003;-81
2022/10/21 00:29:53;;;;;;;13.00;10.32;;;;;;;;;;6306873;22;20003;-81
2022/10/21 00:32:19;;;;;;;12.07;9.23;;;;;;;;;;6306957;22;20003;-80
2022/10/21 00:34:46;;;;;;;12.57;9.93;;;;;;;;;;6306664;22;20446;-77
2022/10/21 00:37:12;;;;;;;13.93;9.85;;;;;;;;;;6306995;22;19999;-79
2022/10/21 00:39:39;;;;;;;14.23;9.95;;;;;;;;;;6306823;22;20073;-83
2022/10/21 00:42:06;;;;;;;12.15;9.80;;;;;;;;;;6306834;22;20002;-86
2022/10/21 00:44:32;;;;;;;9.80;8.40;;;;;;;;;;6306593;22;19999;-85
2022/10/21 00:47:00;;;;;;;11.55;8.10;;;;;;;;;;6304890;22;19996;-77
2022/10/21 00:49:35;;;;;;;11.35;9.70;;;;;;;;;;6306274;22;19996;-81
2022/10/21 00:52:02;;;;;;;9.60;8.60;;;;;;;;;;6306602;22;20074;-84
2022/10/21 00:54:29;;;;;;;11.38;8.43;;;;;;;;;;6306329;22;19995;-82
2022/10/21 00:56:56;;;;;;;9.15;8.10;;;;;;;;;;6306436;22;20006;-81
2022/10/21 00:59:28;;;;;;;10.80;8.07;;;;;;;;;;6306998;22;20007;-83
2022/10/21 01:01:54;;;;;;;9.07;7.97;;;;;;;;;;6306621;22;20003;-79
2022/10/21 01:04:21;;;;;;;9.32;7.95;;;;;;;;;;6306476;22;20473;-83
2022/10/21 01:06:47;;;;;;;10.40;9.05;;;;;;;;;;6306519;22;20006;-82
2022/10/21 01:09:13;;;;;;;9.48;7.63;;;;;;;;;;6306419;22;20433;-84
2022/10/21 01:11:41;;;;;;;12.93;7.93;;;;;;;;;;6306476;22;20018;-82
2022/10/21 01:14:26;;;;;;;10.48;8.63;;;;;;;;;;6306698;22;20013;-83
2022/10/21 01:16:57;;;;;;;11.57;8.52;;;;;;;;;;6306589;22;20000;-84
2022/10/21 01:19:36;;;;;;;16.17;8.05;;;;;;;;;;6306488;22;20006;-80
2022/10/21 01:22:14;;;;;;;10.95;7.53;;;;;;;;;;6306479;22;20308;-81
2022/10/21 01:24:55;;;;;;;8.23;7.28;;;;;;;;;;6306418;22;20441;-79
2022/10/21 01:27:28;;;;;;;11.77;8.07;;;;;;;;;;6306308;22;20052;-84
2022/10/21 01:29:54;;;;;;;11.85;9.32;;;;;;;;;;6306324;22;20005;-80
2022/10/21 01:32:46;;;;;;;9.48;8.23;;;;;;;;;;6306372;22;20004;-81
2022/10/21 01:35:31;;;;;;;11.23;8.43;;;;;;;;;;6302374;22;20007;-80
2022/10/21 01:38:00;;;;;;;9.32;8.10;;;;;;;;;;6306149;22;19995;-78
2022/10/21 01:40:31;;;;;;;9.23;7.65;;;;;;;;;;6306483;22;20303;-81
2022/10/21 01:42:59;;;;;;;8.45;7.55;;;;;;;;;;6306153;22;19995;-80
2022/10/21 01:45:31;;;;;;;9.10;8.20;;;;;;;;;;6306222;22;20056;-78
2022/10/21 01:48:16;;;;;;;8.60;7.70;;;;;;;;;;6306224;22;20494;-83
2022/10/21 01:50:45;;;;;;;10.05;8.38;;;;;;;;;;6306447;22;20077;-81
2022/10/21 01:53:12;;;;;;;10.13;8.38;;;;;;;;;;6306240;22;20442;-86
2022/10/21 01:55:39;;;;;;;9.70;7.72;;;;;;;;;;6306110;22;20010;-85
2022/10/21 01:58:12;;;;;;;9.98;7.30;;;;;;;;;;6305875;22;20002;-80
2022/10/21 02:00:39;;;;;;;12.48;8.57;;;;;;;;;;6306079;22;20079;-84
2022/10/21 02:03:08;;;;;;;10.73;7.57;;;;;;;;;;6308365;22;20077;-78
2022/10/21 02:05:34;;;;;;;8.88;7.43;;;;;;;;;;6308169;22;20004;-80
2022/10/21 02:08:01;;;;;;;10.00;7.97;;;;;;;;;;6308043;22;20074;-83
2022/10/21 02:10:31;;;;;;;11.07;8.77;;;;;;;;;;6308117;22;19995;-84
2022/10/21 02:12:59;;;;;;;9.93;8.60;;;;;;;;;;6308234;22;20003;-80
2022/10/21 02:15:26;;;;;;;8.80;7.90;;;;;;;;;;6308180;22;20026;-78
2022/10/21 02:18:02;;;;;;;10.10;8.40;;;;;;;;;;6308147;22;20003;-84
2022/10/21 02:20:30;;;;;;;10.40;7.95;;;;;;;;;;6307982;22;20034;-81
2022/10/21 02:22:56;;;;;;;9.98;8.57;;;;;;;;;;6308102;22;20001;-83
2022/10/21 02:25:25;;;;;;;8.50;7.70;;;;;;;;;;6308070;22;20053;-79
2022/10/21 02:27:52;;;;;;;9.30;7.72;;;;;;;;;;6308193;22;20003;-82
2022/10/21 02:30:18;;;;;;;9.63;8.63;;;;;;;;;;6308279;22;20000;-81
2022/10/21 02:32:50;;;;;;;9.95;7.93;;;;;;;;;;6307964;22;20003;-83
2022/10/21 02:35:20;;;;;;;10.48;8.98;;;;;;;;;;6306337;22;20090;-80
2022/10/21 02:38:06;;;;;;;13.02;9.27;;;;;;;;;;6308001;22;20014;-83
2022/10/21 02:40:41;;;;;;;11.02;8.55;;;;;;;;;;6307902;22;19999;-81
2022/10/21 02:43:28;;;;;;;9.20;8.18;;;;;;;;;;6307997;22;20433;-79
2022/10/21 02:45:55;;;;;;;11.13;8.90;;;;;;;;;;6292032;22;20007;-80
2022/10/21 02:48:21;;;;;;;11.57;9.88;;;;;;;;;;6307958;22;20000;-80
2022/10/21 02:50:47;;;;;;;10.00;8.65;;;;;;;;;;6307745;22;20037;-86
2022/10/21 02:53:13;;;;;;;12.10;9.55;;;;;;;;;;6307940;22;20125;-78
2022/10/21 02:55:39;;;;;;;13.15;10.35;;;;;;;;;;6307621;22;20052;-84
2022/10/21 02:58:05;;;;;;;13.98;10.18;;;;;;;;;;6307834;22;20111;-80
2022/10/21 03:00:31;;;;;;;13.05;11.02;;;;;;;;;;6307676;22;19999;-80
2022/10/21 03:02:57;;;;;;;15.75;12.05;;;;;;;;;;6307809;22;19999;-79
2022/10/21 03:05:23;;;;;;;12.15;9.15;;;;;;;;;;6307578;22;20082;-83
2022/10/21 03:07:49;;;;;;;10.43;9.30;;;;;;;;;;6307616;22;20475;-86
2022/10/21 03:10:16;;;;;;;12.30;9.15;;;;;;;;;;6307761;22;20010;-81
2022/10/21 03:12:42;;;;;;;11.60;8.88;;;;;;;;;;6280162;22;20474;-83
2022/10/21 03:15:08;;;;;;;11.25;9.52;;;;;;;;;;6307612;22;20133;-81
2022/10/21 03:17:34;;;;;;;11.18;9.38;;;;;;;;;;6307555;22;19999;-78
2022/10/21 03:20:00;;;;;;;12.35;9.82;;;;;;;;;;6306029;22;20081;-83
2022/10/21 03:22:26;;;;;;;13.68;10.57;;;;;;;;;;6307389;22;19999;-79
2022/10/21 03:24:52;;;;;;;10.60;9.50;;;;;;;;;;6307519;22;20427;-83
2022/10/21 03:27:18;;;;;;;15.40;11.55;;;;;;;;;;6307534;22;20074;-84
2022/10/21 03:29:44;;;;;;;14.75;10.50;;;;;;;;;;6307493;22;20074;-84
2022/10/21 03:32:10;;;;;;;12.63;10.57;;;;;;;;;;6307456;22;20082;-78
2022/10/21 03:34:36;;;;;;;14.05;9.40;;;;;;;;;;6307446;22;20002;-84
2022/10/21 03:37:03;;;;;;;13.00;10.55;;;;;;;;;;6307436;22;20304;-81
2022/10/21 03:39:29;;;;;;;12.30;10.95;;;;;;;;;;6307312;22;20023;-84
2022/10/21 03:41:55;;;;;;;13.65;11.27;;;;;;;;;;6307143;22;19999;-82
2022/10/21 03:44:21;;;;;;;13.85;10.30;;;;;;;;;;6307037;22;19999;-81
2022/10/21 03:46:47;;;;;;;13.07;10.20;;;;;;;;;;6307312;22;20004;-82
2022/10/21 03:49:13;;;;;;;13.23;9.95;;;;;;;;;;6307036;22;20003;-80
2022/10/21 03:51:39;;;;;;;15.27;11.93;;;;;;;;;;6307022;22;20007;-77
2022/10/21 03:54:05;;;;;;;31.85;25.98;;;;;;;;;;6306809;22;19999;-81
2022/10/21 03:56:31;;;;;;;23.92;17.58;;;;;;;;;;6306548;22;20078;-82
2022/10/21 03:58:57;;;;;;;20.60;14.75;;;;;;;;;;6307348;22;20477;-81
2022/10/21 04:01:23;;;;;;;18.95;14.68;;;;;;;;;;6307060;22;19999;-84
2022/10/21 04:03:49;;;;;;;30.67;22.42;;;;;;;;;;6306987;22;20085;-81
2022/10/21 04:06:15;;;;;;;20.52;15.60;;;;;;;;;;6306459;22;20010;-83
2022/10/21 04:08:42;;;;;;;14.27;12.13;;;;;;;;;;6306990;22;20004;-83
2022/10/21 04:11:08;;;;;;;18.25;12.38;;;;;;;;;;6307036;22;20019;-79
2022/10/21 04:13:35;;;;;;;13.07;10.77;;;;;;;;;;6279461;22;20453;-84
2022/10/21 04:16:02;;;;;;;16.17;13.57;;;;;;;;;;6278978;22;20013;-82
2022/10/21 04:18:28;;;;;;;17.02;12.40;;;;;;;;;;6305762;22;20538;-81
2022/10/21 04:20:54;;;;;;;16.65;13.95;;;;;;;;;;6306680;22;20018;-86
2022/10/21 04:23:20;;;;;;;19.38;14.55;;;;;;;;;;6306764;22;19991;-83
2022/10/21 04:25:46;;;;;;;23.08;17.77;;;;;;;;;;6306840;22;20003;-80
2022/10/21 04:28:13;;;;;;;20.60;14.80;;;;;;;;;;6279406;22;20352;-80
2022/10/21 04:30:39;;;;;;;19.48;14.43;;;;;;;;;;6306652;22;20029;-80
2022/10/21 04:33:05;;;;;;;19.58;17.48;;;;;;;;;;6279209;22;20085;-79
2022/10/21 04:35:31;;;;;;;19.33;15.77;;;;;;;;;;6306392;22;20010;-82
2022/10/21 04:37:59;;;;;;;19.20;15.52;;;;;;;;;;6306390;22;20006;-83
2022/10/21 04:40:25;;;;;;;19.13;16.08;;;;;;;;;;6306658;22;20386;-83
2022/10/21 04:42:51;;;;;;;23.67;21.05;;;;;;;;;;6306645;22;20007;-82
2022/10/21 04:45:17;;;;;;;18.85;16.02;;;;;;;;;;6279144;22;20345;-83
2022/10/21 04:47:44;;;;;;;37.97;26.95;;;;;;;;;;6306271;22;20007;-82
2022/10/21 04:50:10;;;;;;;37.40;27.98;;;;;;;;;;6306183;22;20003;-83
2022/10/21 04:52:36;;;;;;;32.30;22.52;;;;;;;;;;6278886;22;20003;-83
2022/10/21 04:55:02;;;;;;;35.05;24.27;;;;;;;;;;6306529;22;20027;-83
2022/10/21 04:57:28;;;;;;;29.05;22.88;;;;;;;;;;6278740;22;20327;-82
2022/10/21 04:59:54;;;;;;;29.13;24.20;;;;;;;;;;6307225;22;20018;-81
2022/10/21 05:02:21;;;;;;;28.42;21.30;;;;;;;;;;6306563;22;20002;-81
2022/10/21 05:04:47;;;;;;;25.88;22.25;;;;;;;;;;6306245;22;20015;-80
2022/10/21 05:07:13;;;;;;;29.52;23.50;;;;;;;;;;6306077;22;20027;-82
2022/10/21 05:09:40;;;;;;;30.13;23.75;;;;;;;;;;6306185;22;20079;-83
2022/10/21 05:12:06;;;;;;;25.42;18.23;;;;;;;;;;6306648;22;20003;-83
2022/10/21 05:14:32;;;;;;;23.20;15.63;;;;;;;;;;6305942;22;20014;-79
2022/10/21 05:16:58;;;;;;;40.83;19.10;;;;;;;;;;6278516;22;19999;-83
2022/10/21 05:19:24;;;;;;;21.27;17.83;;;;;;;;;;6278858;22;20010;-80
2022/10/21 05:21:50;;;;;;;23.83;17.08;;;;;;;;;;6306557;22;20821;-82
2022/10/21 05:24:16;;;;;;;22.90;17.45;;;;;;;;;;6306026;22;20003;-81
2022/10/21 05:26:42;;;;;;;20.65;15.27;;;;;;;;;;6305451;22;20003;-81
2022/10/21 05:29:08;;;;;;;24.25;18.30;;;;;;;;;;6305363;22;19995;-81
2022/10/21 05:31:35;;;;;;;36.85;24.73;;;;;;;;;;6305961;22;20446;-78
2022/10/21 05:34:01;;;;;;;40.67;21.85;;;;;;;;;;6304723;22;20000;-79
2022/10/21 05:36:27;;;;;;;30.70;22.60;;;;;;;;;;6305122;22;20315;-81
2022/10/21 05:38:53;;;;;;;28.00;19.23;;;;;;;;;;6305227;22;20003;-83
2022/10/21 05:41:19;;;;;;;17.77;14.82;;;;;;;;;;6302502;22;20000;-80
2022/10/21 05:43:45;;;;;;;22.92;17.42;;;;;;;;;;6303876;22;20071;-83
2022/10/21 05:46:12;;;;;;;23.88;19.40;;;;;;;;;;6304780;22;19999;-81
2022/10/21 05:48:38;;;;;;;29.52;22.75;;;;;;;;;;6304224;22;19999;-84
2022/10/21 05:51:07;;;;;;;21.00;18.63;;;;;;;;;;6305047;22;20041;-84
2022/10/21 05:53:33;;;;;;;32.45;22.65;;;;;;;;;;6277415;22;20354;-84
2022/10/21 05:56:00;;;;;;;45.88;32.58;;;;;;;;;;6303588;22;19999;-79
2022/10/21 05:58:27;;;;;;;33.47;24.67;;;;;;;;;;6304705;22;20022;-80
2022/10/21 06:00:53;;;;;;;50.67;32.75;;;;;;;;;;6304250;22;20007;-84
2022/10/21 06:03:37;;;;;;;35.80;25.00;;;;;;;;;;6304260;22;20003;-82
2022/10/21 06:06:05;;;;;;;28.10;20.23;;;;;;;;;;6276972;22;20096;-80
2022/10/21 06:08:32;;;;;;;27.10;20.80;;;;;;;;;;6304813;22;19999;-82
2022/10/21 06:11:16;;;;;;;45.25;25.63;;;;;;;;;;6303569;22;20482;-82
2022/10/21 06:13:42;;;;;;;74.80;33.20;;;;;;;;;;6304998;22;20301;-81
2022/10/21 06:16:09;;;;;;;82.93;33.88;;;;;;;;;;6304556;22;20006;-79
2022/10/21 06:18:35;;;;;;;137.32;50.58;;;;;;;;;;6304282;22;20026;-83
2022/10/21 06:21:01;;;;;;;175.05;59.35;;;;;;;;;;6304279;22;20061;-82
2022/10/21 06:23:27;;;;;;;163.57;57.83;;;;;;;;;;6304713;22;20032;-87
2022/10/21 06:25:58;;;;;;;54.10;27.60;;;;;;;;;;6304618;22;20075;-83
2022/10/21 06:28:24;;;;;;;33.00;20.98;;;;;;;;;;6304558;22;20023;-81
2022/10/21 06:30:50;;;;;;;33.38;19.83;;;;;;;;;;6304914;22;20145;-82
2022/10/21 06:33:18;;;;;;;33.25;20.10;;;;;;;;;;6304435;22;20076;-81
2022/10/21 06:35:45;;;;;;;51.50;26.48;;;;;;;;;;6304577;22;20014;-82
2022/10/21 06:38:11;;;;;;;37.35;22.98;;;;;;;;;;6303870;22;19996;-82
2022/10/21 06:40:37;;;;;;;44.05;22.48;;;;;;;;;;6304237;22;19999;-83
2022/10/21 06:43:03;;;;;;;36.63;23.52;;;;;;;;;;6304296;22;20358;-83
2022/10/21 06:45:32;;;;;;;52.33;29.92;;;;;;;;;;6276889;22;20003;-81
2022/10/21 06:47:59;;;;;;;40.05;24.02;;;;;;;;;;6304746;22;20026;-83
2022/10/21 06:50:25;;;;;;;76.80;46.92;;;;;;;;;;6308554;22;20082;-80
2022/10/21 06:52:54;;;;;;;57.13;34.55;;;;;;;;;;6307116;22;20014;-83
2022/10/21 06:55:21;;;;;;;51.60;33.17;;;;;;;;;;6306440;22;20007;-79
2022/10/21 06:57:47;;;;;;;52.40;32.45;;;;;;;;;;6305615;22;20006;-82
2022/10/21 07:00:13;;;;;;;48.03;24.13;;;;;;;;;;6305913;22;20049;-82
2022/10/21 07:02:40;;;;;;;46.13;22.77;;;;;;;;;;6305851;22;19999;-81
2022/10/21 07:05:06;;;;;;;70.80;28.98;;;;;;;;;;6306534;22;20011;-80
2022/10/21 07:07:33;;;;;;;65.13;29.45;;;;;;;;;;6305972;22;20003;-82
2022/10/21 07:09:59;;;;;;;128.32;47.40;;;;;;;;;;6305558;22;19995;-81
2022/10/21 07:12:26;;;;;;;80.25;32.40;;;;;;;;;;6305307;22;20057;-80
2022/10/21 07:14:53;;;;;;;111.72;41.60;;;;;;;;;;6306336;22;19992;-83
2022/10/21 07:17:19;;;;;;;83.50;33.83;;;;;;;;;;6305524;22;19999;-83
2022/10/21 07:19:45;;;;;;;85.35;32.28;;;;;;;;;;6306375;22;20367;-81
2022/10/21 07:22:13;;;;;;;113.43;50.72;;;;;;;;;;6306076;22;20423;-81
2022/10/21 07:24:39;;;;;;;108.00;48.65;;;;;;;;;;6278180;22;20057;-83
2022/10/21 07:27:05;;;;;;;61.25;25.75;;;;;;;;;;6305929;22;19996;-83
2022/10/21 07:29:32;;;;;;;241.18;83.18;;;;;;;;;;6305944;22;20573;-78
2022/10/21 07:31:58;;;;;;;185.57;64.72;;;;;;;;;;6306222;22;19999;-79
2022/10/21 07:34:25;;;;;;;86.13;33.67;;;;;;;;;;6306013;22;20067;-77
2022/10/21 07:36:52;;;;;;;49.25;21.75;;;;;;;;;;6306396;22;20105;-77
2022/10/21 07:39:26;;;;;;;30.00;17.20;;;;;;;;;;6305585;22;19995;-80
2022/10/21 07:41:53;;;;;;;22.45;12.82;;;;;;;;;;6306052;22;19995;-79
2022/10/21 07:44:20;;;;;;;18.02;11.10;;;;;;;;;;6277606;22;20056;-78
2022/10/21 07:46:47;;;;;;;36.30;32.05;;;;;;;;;;6305104;22;20007;-78
2022/10/21 07:49:14;;;;;;;17.35;14.68;;;;;;;;;;6305217;22;20063;-76
2022/10/21 07:51:40;;;;;;;12.13;8.68;;;;;;;;;;6305722;22;20007;-76
2022/10/21 07:54:06;;;;;;;11.40;8.38;;;;;;;;;;6304845;22;20030;-77
2022/10/21 07:56:34;;;;;;;9.60;7.80;;;;;;;;;;6303052;22;20011;-76
2022/10/21 07:59:01;;;;;;;10.68;7.43;;;;;;;;;;6305963;22;20037;-76
2022/10/21 08:01:27;;;;;;;14.77;11.63;;;;;;;;;;6305731;22;19999;-78
2022/10/21 08:03:54;;;;;;;10.05;8.95;;;;;;;;;;6305559;22;20007;-78
2022/10/21 08:06:21;;;;;;;12.32;8.80;;;;;;;;;;6305264;22;20043;-76
2022/10/21 08:08:47;;;;;;;12.63;8.32;;;;;;;;;;6304456;22;20003;-79
2022/10/21 08:11:27;;;;;;;13.48;8.90;;;;;;;;;;6305456;22;20484;-80
2022/10/21 08:13:54;;;;;;;16.67;9.38;;;;;;;;;;6306044;22;20056;-77
2022/10/21 08:16:20;;;;;;;10.88;8.23;;;;;;;;;;6305090;22;20406;-79
2022/10/21 08:18:58;;;;;;;14.38;11.63;;;;;;;;;;6305601;22;20004;-78
2022/10/21 08:21:24;;;;;;;11.25;10.07;;;;;;;;;;6305594;22;19996;-79
2022/10/21 08:23:50;;;;;;;14.73;10.98;;;;;;;;;;6304960;22;20006;-78
2022/10/21 08:26:16;;;;;;;17.50;11.90;;;;;;;;;;6305907;22;20003;-78
2022/10/21 08:28:43;;;;;;;20.65;14.65;;;;;;;;;;6305576;22;20392;-79
2022/10/21 08:31:11;;;;;;;29.00;21.17;;;;;;;;;;6305632;22;20030;-80
2022/10/21 08:33:37;;;;;;;17.13;13.50;;;;;;;;;;6305540;22;20691;-80
2022/10/21 08:36:12;;;;;;;12.50;9.52;;;;;;;;;;6278024;22;20374;-80
2022/10/21 08:38:38;;;;;;;13.18;10.73;;;;;;;;;;6304791;22;19991;-80
2022/10/21 08:41:18;;;;;;;12.82;8.85;;;;;;;;;;6305000;22;20003;-83
2022/10/21 08:43:44;;;;;;;11.73;9.07;;;;;;;;;;6304856;22;20442;-80
2022/10/21 08:46:13;;;;;;;10.35;8.38;;;;;;;;;;6305587;22;20034;-81
2022/10/21 08:48:43;;;;;;;13.05;9.35;;;;;;;;;;6305532;22;20078;-83
2022/10/21 08:51:16;;;;;;;10.23;8.02;;;;;;;;;;6305380;22;20110;-81
2022/10/21 08:53:46;;;;;;;9.73;8.25;;;;;;;;;;6305221;22;20078;-80
2022/10/21 08:56:13;;;;;;;9.70;8.00;;;;;;;;;;6303615;22;20030;-81
2022/10/21 08:58:39;;;;;;;10.10;8.85;;;;;;;;;;6278063;22;20082;-78
2022/10/21 09:01:18;;;;;;;8.55;7.57;;;;;;;;;;6304927;22;20014;-80
2022/10/21 09:03:53;;;;;;;10.68;7.78;;;;;;;;;;6305015;22;20435;-80
2022/10/21 09:06:38;;;;;;;9.52;8.52;;;;;;;;;;6305242;22;20031;-82
2022/10/21 09:09:04;;;;;;;12.70;10.55;;;;;;;;;;6305183;22;20497;-84
2022/10/21 09:11:30;;;;;;;12.80;9.85;;;;;;;;;;6304376;22;20687;-81
2022/10/21 09:14:14;;;;;;;18.58;11.65;;;;;;;;;;6305376;22;19999;-82
2022/10/21 09:16:59;;;;;;;12.68;10.30;;;;;;;;;;6304245;22;20010;-79
2022/10/21 09:19:37;;;;;;;11.38;9.20;;;;;;;;;;6305144;22;20057;-80
2022/10/21 09:22:03;;;;;;;18.45;10.40;;;;;;;;;;6304314;22;20052;-83
2022/10/21 09:24:29;;;;;;;20.55;14.23;;;;;;;;;;6304839;22;19996;-83
2022/10/21 09:26:56;;;;;;;24.73;14.93;;;;;;;;;;6304209;22;20007;-79
2022/10/21 09:29:41;;;;;;;43.13;23.52;;;;;;;;;;6304733;22;20023;-84
2022/10/21 09:32:07;;;;;;;;;;;;;;;;;;6277627;22;20442;-84
2022/10/21 09:34:45;;;;;;;20.27;12.85;;;;;;;;;;6304099;22;20646;-80
2022/10/21 09:37:29;;;;;;;14.02;10.52;;;;;;;;;;6304165;22;20003;-83
2022/10/21 09:40:15;;;;;;;12.13;9.20;;;;;;;;;;6276703;22;20014;-80
2022/10/21 09:42:41;;;;;;;16.38;10.82;;;;;;;;;;6304164;22;20062;-80
2022/10/21 09:45:15;;;;;;;16.75;11.93;;;;;;;;;;6304339;22;20465;-83
2022/10/21 09:47:42;;;;;;;11.10;8.40;;;;;;;;;;6304884;22;20000;-85
2022/10/21 09:50:14;;;;;;;9.15;6.93;;;;;;;;;;6302690;22;20011;-82
2022/10/21 09:52:43;;;;;;;10.38;7.63;;;;;;;;;;6304243;22;20007;-81
2022/10/21 09:55:13;;;;;;;10.88;8.25;;;;;;;;;;6304554;22;20015;-83
2022/10/21 09:57:58;;;;;;;10.95;7.95;;;;;;;;;;6304709;22;20004;-79
2022/10/21 10:00:44;;;;;;;20.23;9.65;;;;;;;;;;6304298;22;20423;-82
2022/10/21 10:03:10;;;;;;;14.52;9.75;;;;;;;;;;6288861;22;20419;-82
2022/10/21 10:05:48;;;;;;;14.35;7.82;;;;;;;;;;6304208;22;20018;-80
2022/10/21 10:08:33;;;;;;;16.20;9.93;;;;;;;;;;6304034;22;20070;-81
2022/10/21 10:11:18;;;;;;;176.93;63.33;;;;;;;;;;6304160;22;20007;-80
2022/10/21 10:13:48;;;;;;;26.25;14.18;;;;;;;;;;6304455;22;20417;-85
2022/10/21 10:16:34;;;;;;;14.52;9.45;;;;;;;;;;6304755;22;20030;-79
2022/10/21 10:19:19;;;;;;;23.65;13.00;;;;;;;;;;6304072;22;20003;-85
2022/10/21 10:21:47;;;;;;;17.85;10.60;;;;;;;;;;6304506;22;20010;-80
2022/10/21 10:24:32;;;;;;;9.57;6.78;;;;;;;;;;6304560;22;20008;-81
2022/10/21 10:27:02;;;;;;;11.65;7.75;;;;;;;;;;6303447;22;20008;-85
2022/10/21 10:29:29;;;;;;;12.35;8.02;;;;;;;;;;6306112;22;20003;-81
2022/10/21 10:32:12;;;;;;;10.43;8.23;;;;;;;;;;6305636;22;20011;-80
2022/10/21 10:34:55;;;;;;;12.23;9.50;;;;;;;;;;6215866;23;20004;-81
2022/10/21 10:37:27;;;;;;;16.95;9.20;;;;;;;;;;6241882;23;20058;-81
2022/10/21 10:39:58;;;;;;;31.73;9.00;;;;;;;;;;6215853;23;20344;-82
2022/10/21 10:42:27;;;;;;;16.83;9.25;;;;;;;;;;6216400;23;20107;-83
2022/10/21 10:44:55;;;;;;;13.10;8.30;;;;;;;;;;6243026;23;20009;-80
2022/10/21 10:47:39;;;;;;;14.98;8.50;;;;;;;;;;6242697;23;20012;-80
2022/10/21 10:50:05;;;;;;;;;;;;;;;;;;6242539;23;20012;-81
2022/10/21 10:52:31;;;;;;;11.68;7.68;;;;;;;;;;6242354;23;20373;-80
2022/10/21 10:55:16;;;;;;;10.50;8.07;;;;;;;;;;6242500;23;20079;-81
2022/10/21 10:57:44;;;;;;;10.70;8.13;;;;;;;;;;6242559;23;20098;-84
2022/10/21 11:00:17;;;;;;;12.23;8.43;;;;;;;;;;6191897;23;20360;-81
2022/10/21 11:02:47;;;;;;;8.18;7.07;;;;;;;;;;6242138;23;20075;-79
2022/10/21 11:05:16;;;;;;;18.02;11.00;;;;;;;;;;6241714;23;20159;-85
2022/10/21 11:07:50;;;;;;;30.23;14.60;;;;;;;;;;6240949;23;20012;-82
2022/10/21 11:10:16;;;;;;;11.93;8.33;;;;;;;;;;6241027;23;20339;-81
2022/10/21 11:12:42;;;;;;;10.10;6.93;;;;;;;;;;6216600;23;20000;-81
2022/10/21 11:15:14;;;;;;;10.90;7.95;;;;;;;;;;6242025;23;20019;-84
2022/10/21 11:17:41;;;;;;;11.27;8.32;;;;;;;;;;6242580;23;20042;-82
2022/10/21 11:20:07;;;;;;;27.27;13.77;;;;;;;;;;6216596;23;20435;-83
2022/10/21 11:22:51;;;;;;;11.98;8.05;;;;;;;;;;6216132;23;20451;-84
2022/10/21 11:25:22;;;;;;;8.55;6.60;;;;;;;;;;6285918;22;20062;-83
2022/10/21 11:28:13;;;;;;;21.23;11.82;;;;;;;;;;6304632;22;20007;-80
2022/10/21 11:30:55;;;;;;;12.65;7.38;;;;;;;;;;6294469;22;20031;-83
2022/10/21 11:33:40;;;;;;;10.15;7.32;;;;;;;;;;6305035;22;19999;-80
2022/10/21 11:36:25;;;;;;;13.45;8.32;;;;;;;;;;6305046;22;20106;-84
2022/10/21 11:39:09;;;;;;;16.67;9.45;;;;;;;;;;6305297;22;19999;-82
2022/10/21 11:41:48;;;;;;;9.57;6.55;;;;;;;;;;6304143;22;20773;-84
2022/10/21 11:44:57;;;;;;;33.85;15.02;;;;;;;;;;6305278;22;19998;-83
2022/10/21 11:47:43;;;;;;;17.13;9.07;;;;;;;;;;6278170;22;19999;-82
2022/10/21 11:50:27;;;;;;;21.73;11.35;;;;;;;;;;6306609;22;20439;-84
2022/10/21 11:52:56;;;;;;;23.27;10.18;;;;;;;;;;6306030;22;20003;-80
2022/10/21 11:55:41;;;;;;;345.60;120.75;;;;;;;;;;6306916;22;20029;-81
2022/10/21 11:58:07;;;;;;;;;;;;;;;;;;6307613;22;19999;-81
2022/10/21 12:00:38;;;;;;;79.30;29.83;;;;;;;;;;6307357;22;19973;-82
2022/10/21 12:03:22;;;;;;;281.15;103.32;;;;;;;;;;6307172;22;20049;-78
2022/10/21 12:05:48;;;;;;;;;;;;;;;;;;6307235;22;20447;-79
2022/10/21 12:08:17;;;;;;;193.07;70.35;;;;;;;;;;6307324;22;19948;-80
2022/10/21 12:10:53;;;;;;;164.40;61.95;;;;;;;;;;6306661;22;20138;-80
2022/10/21 12:13:38;;;;;;;38.88;17.52;;;;;;;;;;6307566;22;20002;-81
2022/10/21 12:16:22;;;;;;;74.28;30.10;;;;;;;;;;6306474;22;20003;-78
2022/10/21 12:18:51;;;;;;;82.85;39.15;;;;;;;;;;6306184;22;19999;-80
2022/10/21 12:21:20;;;;;;;20.92;11.85;;;;;;;;;;6307288;22;19999;-84
2022/10/21 12:23:50;;;;;;;13.25;6.88;;;;;;;;;;6306957;22;20010;-83
2022/10/21 12:26:34;;;;;;;41.22;20.77;;;;;;;;;;6306725;22;19995;-82
2022/10/21 12:29:05;;;;;;;10.70;5.85;;;;;;;;;;6308007;22;20346;-83
2022/10/21 12:32:03;;;;;;;18.77;8.48;;;;;;;;;;6307414;22;19999;-83
2022/10/21 12:34:29;;;;;;;9.43;5.55;;;;;;;;;;6239570;22;20007;-81
2022/10/21 12:36:55;;;;;;;20.38;11.43;;;;;;;;;;6307069;22;20330;-82
2022/10/21 12:39:34;;;;;;;6.93;4.80;;;;;;;;;;6306492;22;19999;-81
2022/10/21 12:42:19;;;;;;;9.02;6.20;;;;;;;;;;6307667;22;19996;-84
2022/10/21 12:44:49;;;;;;;10.50;6.47;;;;;;;;;;6307759;22;20068;-82
2022/10/21 12:47:31;;;;;;;13.38;7.72;;;;;;;;;;6307560;22;20007;-81
2022/10/21 12:50:18;;;;;;;9.18;6.60;;;;;;;;;;6304990;22;20008;-81
2022/10/21 12:52:45;;;;;;;7.88;6.00;;;;;;;;;;6305707;22;20434;-81
2022/10/21 12:55:21;;;;;;;8.75;5.95;;;;;;;;;;6305855;22;20010;-81
2022/10/21 12:57:55;;;;;;;11.70;6.93;;;;;;;;;;6303740;22;20000;-80
2022/10/21 13:00:22;;;;;;;20.58;18.33;;;;;;;;;;6305183;22;20014;-80
2022/10/21 13:03:04;;;;;;;9.27;6.50;;;;;;;;;;6305026;22;20062;-83
2022/10/21 13:05:51;;;;;;;5.25;4.75;;;;;;;;;;6306808;22;20031;-81
2022/10/21 13:11:05;;;;;;;7.88;7.07;;;;;;;;;;6306770;22;20095;-84
2022/10/21 13:13:38;;;;;;;9.30;5.68;;;;;;;;;;6305146;22;20104;-82
2022/10/21 13:16:19;;;;;;;8.68;6.28;;;;;;;;;;6306488;22;20010;-83
2022/10/21 13:19:04;;;;;;;6.25;5.25;;;;;;;;;;6306410;22;20070;-85
2022/10/21 13:21:51;;;;;;;8.20;5.13;;;;;;;;;;6306794;22;20023;-86
2022/10/21 13:24:30;;;;;;;6.00;3.97;;;;;;;;;;6306848;22;19999;-86
2022/10/21 13:26:57;;;;;;;5.43;3.90;;;;;;;;;;6279467;22;20010;-84
2022/10/21 13:29:23;;;;;;;6.53;4.45;;;;;;;;;;6307585;22;20342;-86
2022/10/21 13:32:09;;;;;;;5.78;3.70;;;;;;;;;;6307717;22;20010;-86
2022/10/21 13:34:35;;;;;;;7.22;6.03;;;;;;;;;;6306375;22;20351;-83
2022/10/21 13:37:11;;;;;;;7.18;4.57;;;;;;;;;;6308583;22;20056;-81
2022/10/21 13:39:38;;;;;;;4.90;4.00;;;;;;;;;;6307481;22;20041;-84
2022/10/21 13:42:06;;;;;;;6.30;4.38;;;;;;;;;;6307922;22;20466;-87
2022/10/21 13:44:36;;;;;;;5.50;4.15;;;;;;;;;;6307921;22;20040;-85
2022/10/21 13:47:21;;;;;;;5.75;3.55;;;;;;;;;;6307764;22;20018;-83
2022/10/21 13:50:05;;;;;;;4.22;3.65;;;;;;;;;;6307723;22;19995;-87
2022/10/21 13:52:32;;;;;;;7.07;5.30;;;;;;;;;;6307890;22;20030;-85
2022/10/21 13:55:01;;;;;;;5.72;4.75;;;;;;;;;;6307619;22;19999;-83
2022/10/21 13:57:28;;;;;;;5.82;5.20;;;;;;;;;;6308439;22;19995;-82
2022/10/21 14:00:05;;;;;;;6.25;4.63;;;;;;;;;;6310402;22;20023;-87
2022/10/21 14:02:31;;;;;;;5.25;4.55;;;;;;;;;;6308320;22;20003;-83
2022/10/21 14:04:57;;;;;;;7.78;5.55;;;;;;;;;;6309812;22;20415;-83
2022/10/21 14:07:23;;;;;;;7.82;5.25;;;;;;;;;;6309906;22;20026;-81
2022/10/21 14:09:55;;;;;;;5.05;4.10;;;;;;;;;;6309725;22;20006;-86
2022/10/21 14:12:26;;;;;;;5.18;4.30;;;;;;;;;;6309900;22;20003;-84
2022/10/21 14:14:53;;;;;;;7.05;4.07;;;;;;;;;;6309704;22;20005;-86
2022/10/21 14:17:22;;;;;;;4.55;3.40;;;;;;;;;;6309795;22;20007;-81
2022/10/21 14:20:08;;;;;;;4.82;3.45;;;;;;;;;;6309666;22;19995;-84
2022/10/21 14:22:34;;;;;;;4.53;4.00;;;;;;;;;;6309429;22;20061;-83
2022/10/21 14:25:01;;;;;;;5.47;4.50;;;;;;;;;;6309528;22;20472;-82
2022/10/21 14:27:30;;;;;;;8.45;5.18;;;;;;;;;;6309622;22;20112;-85
2022/10/21 14:29:57;;;;;;;6.65;4.35;;;;;;;;;;6309629;22;20117;-85
2022/10/21 14:32:25;;;;;;;6.88;4.68;;;;;;;;;;6309701;22;19999;-86
2022/10/21 14:35:10;;;;;;;5.40;3.47;;;;;;;;;;6309283;22;20049;-80
2022/10/21 14:37:41;;;;;;;7.90;4.68;;;;;;;;;;6309776;22;20007;-81
2022/10/21 14:40:11;;;;;;;7.95;4.60;;;;;;;;;;6309153;22;19999;-83
2022/10/21 14:42:39;;;;;;;5.18;3.88;;;;;;;;;;6309850;22;20009;-84
2022/10/21 14:45:05;;;;;;;6.93;3.88;;;;;;;;;;6309408;22;20007;-79
2022/10/21 14:47:31;;;;;;;4.60;4.18;;;;;;;;;;6309206;22;19999;-82
2022/10/21 14:49:58;;;;;;;5.05;4.45;;;;;;;;;;6308974;22;20014;-81